Troviken — C6ZT9 — position and weather

sailwx.info

Track history (hours):
 
Tides and Currents Weather Stations Pressure Air Temp Water Temp Dewpoint Dewpoint Depression Visibility Wind Speed Wind Dir Waves Ship Positions

Troviken

Last reported at 2015-Apr-25 09:30 UTC. Time now 2015-May-04 23:08 UTC.
Position N 01°57' E 102°15'.
Warning: this ship's position is 9 days out of date.

Length 250 m; draft 10.5 m.

Type: Ship (hazmat cat A). MMSI: 311066200.

Date/timePositionNaut miles runAvg speedWind from/ knotsBaromVisibWave heightAir tempDewpointWater temp
2015-Apr-25 09:30N 01°57' E 102°15'1212.1
2015-Apr-25 08:29N 01°52' E 102°26'1111.6
2015-Apr-25 07:31N 01°48' E 102°36'1111.1
2015-Apr-25 06:34N 01°43' E 102°46'64 1.7
2015-Apr-23 17:22N 01°12' E 103°41'0 0.1
2015-Apr-23 10:20N 01°12' E 103°41'3 4.1
2015-Apr-23 09:30N 01°09' E 103°44'6 6.1
2015-Apr-23 08:32N 01°14' E 103°47'1 0.6
2015-Apr-23 07:33N 01°14' E 103°46'0 0.0
2015-Apr-23 06:18N 01°14' E 103°46'0 0.0
2015-Apr-23 05:30N 01°14' E 103°46'0 0.0
2015-Apr-23 04:33N 01°14' E 103°46'0 0.0
2015-Apr-23 03:33N 01°14' E 103°46'0 0.0
2015-Apr-23 02:33N 01°14' E 103°46'0 0.0
2015-Apr-23 01:33N 01°14' E 103°46'0 0.0
2015-Apr-23 00:33N 01°14' E 103°46'0 0.0
2015-Apr-22 23:33N 01°14' E 103°46'0 0.0
2015-Apr-22 22:33N 01°14' E 103°46'0 0.0
2015-Apr-22 21:33N 01°14' E 103°46'0 0.0
2015-Apr-22 20:33N 01°14' E 103°46'0 0.0
2015-Apr-22 19:33N 01°14' E 103°46'0 0.0
2015-Apr-22 18:33N 01°14' E 103°46'0 0.0
2015-Apr-22 17:33N 01°14' E 103°46'0 0.0
2015-Apr-22 16:34N 01°14' E 103°46'0 0.0
2015-Apr-22 15:33N 01°14' E 103°46'0 0.0
2015-Apr-22 14:33N 01°14' E 103°46'0 0.0
2015-Apr-22 13:33N 01°14' E 103°46'0 0.0
2015-Apr-22 12:33N 01°14' E 103°46'0 0.0
2015-Apr-22 11:33N 01°14' E 103°46'0 0.0
2015-Apr-22 10:33N 01°14' E 103°46'0 0.0
2015-Apr-22 09:33N 01°14' E 103°46'0 0.0
2015-Apr-22 08:33N 01°14' E 103°46'0 0.0
2015-Apr-22 07:33N 01°14' E 103°46'0 0.0
2015-Apr-22 06:33N 01°14' E 103°46'0 0.0
2015-Apr-22 05:33N 01°14' E 103°46'0 0.0
2015-Apr-22 04:33N 01°14' E 103°46'0 0.0
2015-Apr-22 03:33N 01°14' E 103°46'3 3.0
2015-Apr-22 02:32N 01°13' E 103°49'4 3.9
2015-Apr-22 01:32N 01°13' E 103°53'3 3.2
2015-Apr-22 00:33N 01°15' E 103°55'5 5.0
2015-Apr-21 23:30N 01°12' E 103°51'8 8.0
2015-Apr-21 22:33N 01°17' E 103°45'1 1.0
2015-Apr-21 21:04N 01°17' E 103°43'0 0.0
2015-Apr-21 17:10N 01°17' E 103°43'0 0.0
2015-Apr-21 13:16N 01°18' E 103°43'0 0.0
2015-Apr-21 12:16N 01°18' E 103°43'0 0.0
2015-Apr-21 11:22N 01°18' E 103°43'0 0.0
2015-Apr-21 10:10N 01°18' E 103°43'0 0.0
2015-Apr-21 06:28N 01°18' E 103°43'0 0.0
2015-Apr-21 02:04N 01°17' E 103°43'0 0.0
2015-Apr-21 01:19N 01°17' E 103°43'0 0.0
2015-Apr-21 00:25N 01°17' E 103°43'0 0.0
2015-Apr-20 23:28N 01°18' E 103°43'0 0.0
2015-Apr-20 22:04N 01°18' E 103°43'0 0.0
2015-Apr-20 21:22N 01°17' E 103°43'0 0.0
2015-Apr-20 20:22N 01°18' E 103°43'0 0.0
2015-Apr-20 16:28N 01°17' E 103°43'0 0.0
2015-Apr-20 14:22N 01°18' E 103°43'0 0.0
2015-Apr-20 11:16N 01°18' E 103°43'0 0.0
2015-Apr-20 10:22N 01°18' E 103°43'0 0.0
2015-Apr-20 09:28N 01°18' E 103°43'0 0.0
2015-Apr-20 08:10N 01°18' E 103°43'0 0.1
2015-Apr-20 07:22N 01°18' E 103°43'0 0.0
2015-Apr-20 04:22N 01°18' E 103°43'0 0.0
2015-Apr-20 03:22N 01°18' E 103°43'0 0.0
2015-Apr-20 02:16N 01°17' E 103°43'0 0.0
2015-Apr-20 01:10N 01°17' E 103°43'0 0.0
2015-Apr-19 23:16N 01°18' E 103°43'0 0.0
2015-Apr-19 19:22N 01°17' E 103°43'0 0.0
2015-Apr-19 17:22N 01°17' E 103°43'0 0.0
2015-Apr-19 16:30N 01°18' E 103°43'4 4.4
2015-Apr-19 15:33N 01°15' E 103°47'8 8.3
2015-Apr-19 14:33N 01°14' E 103°55'0 0.3
2015-Apr-19 13:27N 01°15' E 103°55'0 0.1
2015-Apr-19 12:21N 01°14' E 103°55'1 0.9
2015-Apr-19 11:33N 01°14' E 103°55'5 5.4
2015-Apr-19 10:33N 01°16' E 104°00'5 4.9
2015-Apr-19 09:33N 01°16' E 104°05'  
Track history (hours):
 
Tides and Currents Weather Stations Pressure Air Temp Water Temp Dewpoint Dewpoint Depression Visibility Wind Speed Wind Dir Waves Ship Positions

Troviken

Last reported at 2015-Apr-25 09:30 UTC. Time now 2015-May-04 23:08 UTC.
Position N 01°57' E 102°15'.
Warning: this ship's position is 9 days out of date.

Length 250 m; draft 10.5 m.

Type: Ship (hazmat cat A). MMSI: 311066200.

Date/timePositionNaut miles runAvg speedWind from/ knotsBaromVisibWave heightAir tempDewpointWater temp
2015-Apr-25 09:30N 01°57' E 102°15'1212.1
2015-Apr-25 08:29N 01°52' E 102°26'1111.6
2015-Apr-25 07:31N 01°48' E 102°36'1111.1
2015-Apr-25 06:34N 01°43' E 102°46'64 1.7
2015-Apr-23 17:22N 01°12' E 103°41'0 0.1
2015-Apr-23 10:20N 01°12' E 103°41'3 4.1
2015-Apr-23 09:30N 01°09' E 103°44'6 6.1
2015-Apr-23 08:32N 01°14' E 103°47'1 0.6
2015-Apr-23 07:33N 01°14' E 103°46'0 0.0
2015-Apr-23 06:18N 01°14' E 103°46'0 0.0
2015-Apr-23 05:30N 01°14' E 103°46'0 0.0
2015-Apr-23 04:33N 01°14' E 103°46'0 0.0
2015-Apr-23 03:33N 01°14' E 103°46'0 0.0
2015-Apr-23 02:33N 01°14' E 103°46'0 0.0
2015-Apr-23 01:33N 01°14' E 103°46'0 0.0
2015-Apr-23 00:33N 01°14' E 103°46'0 0.0
2015-Apr-22 23:33N 01°14' E 103°46'0 0.0
2015-Apr-22 22:33N 01°14' E 103°46'0 0.0
2015-Apr-22 21:33N 01°14' E 103°46'0 0.0
2015-Apr-22 20:33N 01°14' E 103°46'0 0.0
2015-Apr-22 19:33N 01°14' E 103°46'0 0.0
2015-Apr-22 18:33N 01°14' E 103°46'0 0.0
2015-Apr-22 17:33N 01°14' E 103°46'0 0.0
2015-Apr-22 16:34N 01°14' E 103°46'0 0.0
2015-Apr-22 15:33N 01°14' E 103°46'0 0.0
2015-Apr-22 14:33N 01°14' E 103°46'0 0.0
2015-Apr-22 13:33N 01°14' E 103°46'0 0.0
2015-Apr-22 12:33N 01°14' E 103°46'0 0.0
2015-Apr-22 11:33N 01°14' E 103°46'0 0.0
2015-Apr-22 10:33N 01°14' E 103°46'0 0.0
2015-Apr-22 09:33N 01°14' E 103°46'0 0.0
2015-Apr-22 08:33N 01°14' E 103°46'0 0.0
2015-Apr-22 07:33N 01°14' E 103°46'0 0.0
2015-Apr-22 06:33N 01°14' E 103°46'0 0.0
2015-Apr-22 05:33N 01°14' E 103°46'0 0.0
2015-Apr-22 04:33N 01°14' E 103°46'0 0.0
2015-Apr-22 03:33N 01°14' E 103°46'3 3.0
2015-Apr-22 02:32N 01°13' E 103°49'4 3.9
2015-Apr-22 01:32N 01°13' E 103°53'3 3.2
2015-Apr-22 00:33N 01°15' E 103°55'5 5.0
2015-Apr-21 23:30N 01°12' E 103°51'8 8.0
2015-Apr-21 22:33N 01°17' E 103°45'1 1.0
2015-Apr-21 21:04N 01°17' E 103°43'0 0.0
2015-Apr-21 17:10N 01°17' E 103°43'0 0.0
2015-Apr-21 13:16N 01°18' E 103°43'0 0.0
2015-Apr-21 12:16N 01°18' E 103°43'0 0.0
2015-Apr-21 11:22N 01°18' E 103°43'0 0.0
2015-Apr-21 10:10N 01°18' E 103°43'0 0.0
2015-Apr-21 06:28N 01°18' E 103°43'0 0.0
2015-Apr-21 02:04N 01°17' E 103°43'0 0.0
2015-Apr-21 01:19N 01°17' E 103°43'0 0.0
2015-Apr-21 00:25N 01°17' E 103°43'0 0.0
2015-Apr-20 23:28N 01°18' E 103°43'0 0.0
2015-Apr-20 22:04N 01°18' E 103°43'0 0.0
2015-Apr-20 21:22N 01°17' E 103°43'0 0.0
2015-Apr-20 20:22N 01°18' E 103°43'0 0.0
2015-Apr-20 16:28N 01°17' E 103°43'0 0.0
2015-Apr-20 14:22N 01°18' E 103°43'0 0.0
2015-Apr-20 11:16N 01°18' E 103°43'0 0.0
2015-Apr-20 10:22N 01°18' E 103°43'0 0.0
2015-Apr-20 09:28N 01°18' E 103°43'0 0.0
2015-Apr-20 08:10N 01°18' E 103°43'0 0.1
2015-Apr-20 07:22N 01°18' E 103°43'0 0.0
2015-Apr-20 04:22N 01°18' E 103°43'0 0.0
2015-Apr-20 03:22N 01°18' E 103°43'0 0.0
2015-Apr-20 02:16N 01°17' E 103°43'0 0.0
2015-Apr-20 01:10N 01°17' E 103°43'0 0.0
2015-Apr-19 23:16N 01°18' E 103°43'0 0.0
2015-Apr-19 19:22N 01°17' E 103°43'0 0.0
2015-Apr-19 17:22N 01°17' E 103°43'0 0.0
2015-Apr-19 16:30N 01°18' E 103°43'4 4.4
2015-Apr-19 15:33N 01°15' E 103°47'8 8.3
2015-Apr-19 14:33N 01°14' E 103°55'0 0.3
2015-Apr-19 13:27N 01°15' E 103°55'0 0.1
2015-Apr-19 12:21N 01°14' E 103°55'1 0.9
2015-Apr-19 11:33N 01°14' E 103°55'5 5.4
2015-Apr-19 10:33N 01°16' E 104°00'5 4.9
2015-Apr-19 09:33N 01°16' E 104°05'  

Dump ship's entire track history